createdAt,value
2023-02-19T00:00:17.445Z,11.36
2023-02-19T00:00:38.557Z,11.36
2023-02-19T00:00:59.609Z,11.37
2023-02-19T00:01:20.676Z,11.37
2023-02-19T00:01:41.764Z,11.36
2023-02-19T00:02:02.796Z,11.36
2023-02-19T00:02:23.846Z,11.36
2023-02-19T00:02:44.940Z,11.36
2023-02-19T00:03:06.133Z,11.36
2023-02-19T00:03:27.253Z,11.36
2023-02-19T00:03:48.429Z,11.35
2023-02-19T00:04:09.454Z,11.35
2023-02-19T00:04:30.533Z,11.36
2023-02-19T00:04:51.639Z,11.36
2023-02-19T00:05:12.735Z,11.36
2023-02-19T00:05:34.417Z,11.36
2023-02-19T00:05:55.438Z,11.36
2023-02-19T00:06:16.515Z,11.36
2023-02-19T00:06:37.586Z,11.36
2023-02-19T00:06:58.630Z,11.36
2023-02-19T00:07:19.694Z,11.35
2023-02-19T00:07:40.760Z,11.35
2023-02-19T00:08:01.837Z,11.36
2023-02-19T00:08:22.897Z,11.36
2023-02-19T00:08:44.003Z,11.36
2023-02-19T00:09:05.062Z,11.35
2023-02-19T00:09:26.113Z,11.36
2023-02-19T00:09:47.164Z,11.35
2023-02-19T00:10:08.223Z,11.36
2023-02-19T00:10:29.269Z,11.36
2023-02-19T00:10:50.395Z,11.35
2023-02-19T00:11:11.796Z,11.35
2023-02-19T00:11:33.140Z,11.36
2023-02-19T00:11:54.191Z,11.36
2023-02-19T00:12:15.247Z,11.36
2023-02-19T00:12:36.318Z,11.35
2023-02-19T00:12:57.423Z,11.35
2023-02-19T00:13:18.479Z,11.35
2023-02-19T00:13:39.538Z,11.36
2023-02-19T00:14:00.625Z,11.35
2023-02-19T00:14:21.677Z,11.35
2023-02-19T00:14:42.729Z,11.35
2023-02-19T00:15:03.848Z,11.34
2023-02-19T00:15:24.878Z,11.34
2023-02-19T00:15:46.034Z,11.34
2023-02-19T00:16:07.097Z,11.34
2023-02-19T00:16:28.141Z,11.34
2023-02-19T00:16:49.426Z,11.34
2023-02-19T00:17:10.452Z,11.34
2023-02-19T00:17:31.510Z,11.33
2023-02-19T00:17:52.599Z,11.34
2023-02-19T00:18:13.644Z,11.33
2023-02-19T00:18:34.719Z,11.34
2023-02-19T00:18:55.766Z,11.34
2023-02-19T00:19:16.823Z,11.33
2023-02-19T00:19:37.897Z,11.34
2023-02-19T00:19:58.961Z,11.34
2023-02-19T00:20:20.057Z,11.34
2023-02-19T00:20:41.106Z,11.34
2023-02-19T00:21:02.236Z,11.33
2023-02-19T00:21:23.416Z,11.33
2023-02-19T00:21:44.438Z,11.33
2023-02-19T00:22:05.665Z,11.33
2023-02-19T00:22:26.728Z,11.33
2023-02-19T00:22:47.786Z,11.33
2023-02-19T00:23:08.918Z,11.33
2023-02-19T00:23:29.984Z,11.33
2023-02-19T00:23:51.023Z,11.34
2023-02-19T00:24:12.089Z,11.33
2023-02-19T00:24:33.144Z,11.33
2023-02-19T00:24:54.212Z,11.33
2023-02-19T00:25:15.279Z,11.33
2023-02-19T00:25:36.348Z,11.33
2023-02-19T00:26:03.232Z,11.33
2023-02-19T00:26:24.359Z,11.33
2023-02-19T00:26:45.462Z,11.32
2023-02-19T00:27:06.493Z,11.32
2023-02-19T00:27:27.558Z,11.32
2023-02-19T00:27:48.629Z,11.32
2023-02-19T00:28:09.687Z,11.33
2023-02-19T00:28:30.744Z,11.32
2023-02-19T00:28:51.798Z,11.32
2023-02-19T00:29:12.865Z,11.32
2023-02-19T00:29:33.918Z,11.32
2023-02-19T00:29:54.984Z,11.32
2023-02-19T00:30:16.079Z,11.31
2023-02-19T00:30:37.120Z,11.31
2023-02-19T00:30:58.220Z,11.31
2023-02-19T00:31:19.407Z,11.31
2023-02-19T00:31:40.638Z,11.31
2023-02-19T00:32:01.831Z,11.30
2023-02-19T00:32:23.141Z,11.31
2023-02-19T00:32:44.292Z,11.30
2023-02-19T00:33:05.353Z,11.30
2023-02-19T00:33:26.412Z,11.30
2023-02-19T00:33:47.481Z,11.30
2023-02-19T00:34:08.545Z,11.30
2023-02-19T00:34:29.599Z,11.30
2023-02-19T00:34:50.691Z,11.29
2023-02-19T00:35:11.760Z,11.29
2023-02-19T00:35:32.834Z,11.30
2023-02-19T00:35:53.896Z,11.30
2023-02-19T00:36:14.938Z,11.30
2023-02-19T00:36:36.266Z,11.29
2023-02-19T00:36:57.340Z,11.30
2023-02-19T00:37:18.385Z,11.29
2023-02-19T00:37:39.481Z,11.29
2023-02-19T00:38:00.537Z,11.29
2023-02-19T00:38:21.606Z,11.29
2023-02-19T00:38:42.667Z,11.29
2023-02-19T00:39:03.763Z,11.29
2023-02-19T00:39:24.793Z,11.29
2023-02-19T00:39:45.857Z,11.30
2023-02-19T00:40:06.945Z,11.30
2023-02-19T00:40:27.985Z,11.29
2023-02-19T00:40:49.043Z,11.29
2023-02-19T00:41:10.509Z,11.29
2023-02-19T00:41:31.660Z,11.29
2023-02-19T00:41:52.709Z,11.29
2023-02-19T00:42:13.784Z,11.28
2023-02-19T00:42:34.848Z,11.28
2023-02-19T00:42:56.043Z,11.29
2023-02-19T00:43:17.133Z,11.29
2023-02-19T00:43:38.156Z,11.28
2023-02-19T00:43:59.219Z,11.28
2023-02-19T00:44:20.271Z,11.29
2023-02-19T00:44:41.365Z,11.28
2023-02-19T00:45:02.412Z,11.29
2023-02-19T00:45:23.470Z,11.29
2023-02-19T00:45:44.530Z,11.28
2023-02-19T00:46:05.617Z,11.28
2023-02-19T00:46:26.753Z,11.28
2023-02-19T00:46:47.830Z,11.28
2023-02-19T00:47:08.890Z,11.29
2023-02-19T00:47:29.926Z,11.28
2023-02-19T00:47:51.020Z,11.28
2023-02-19T00:48:12.108Z,11.28
2023-02-19T00:48:33.173Z,11.27
2023-02-19T00:48:54.252Z,11.27
2023-02-19T00:49:15.327Z,11.27
2023-02-19T00:49:36.357Z,11.27
2023-02-19T00:49:57.419Z,11.28
2023-02-19T00:50:18.498Z,11.27
2023-02-19T00:50:39.555Z,11.27
2023-02-19T00:51:00.618Z,11.27
2023-02-19T00:51:21.691Z,11.27
2023-02-19T00:51:42.746Z,11.27
2023-02-19T00:52:03.829Z,11.27
2023-02-19T00:52:24.867Z,11.27
2023-02-19T00:52:45.921Z,11.26
2023-02-19T00:53:06.988Z,11.27
2023-02-19T00:53:28.228Z,11.26
2023-02-19T00:53:49.278Z,11.26
2023-02-19T00:54:10.332Z,11.26
2023-02-19T00:54:31.416Z,11.27
2023-02-19T00:54:52.472Z,11.26
2023-02-19T00:55:13.522Z,11.26
2023-02-19T00:55:34.592Z,11.26
2023-02-19T00:55:55.644Z,11.27
2023-02-19T00:56:16.706Z,11.27
2023-02-19T00:56:37.787Z,11.26
2023-02-19T00:56:58.851Z,11.27
2023-02-19T00:57:19.888Z,11.26
2023-02-19T00:57:40.950Z,11.26
2023-02-19T00:58:02.013Z,11.26
2023-02-19T00:58:23.076Z,11.28
2023-02-19T00:58:44.320Z,11.27
2023-02-19T00:59:05.390Z,11.27
2023-02-19T00:59:26.466Z,11.26
2023-02-19T00:59:47.519Z,11.26
2023-02-19T01:00:08.572Z,11.26
2023-02-19T01:00:29.648Z,11.26
2023-02-19T01:00:50.719Z,11.26
2023-02-19T01:01:12.086Z,11.26
2023-02-19T01:01:33.268Z,11.27
2023-02-19T01:01:54.404Z,11.26
2023-02-19T01:02:15.475Z,11.27
2023-02-19T01:02:36.512Z,11.26
2023-02-19T01:02:57.568Z,11.26
2023-02-19T01:03:18.624Z,11.26
2023-02-19T01:03:39.688Z,11.27
2023-02-19T01:04:00.778Z,11.26
2023-02-19T01:04:21.868Z,11.27
2023-02-19T01:04:42.917Z,11.26
2023-02-19T01:05:04.017Z,11.26
2023-02-19T01:05:25.030Z,11.27
2023-02-19T01:05:46.094Z,11.25
2023-02-19T01:06:07.172Z,11.26
2023-02-19T01:06:28.212Z,11.25
2023-02-19T01:06:49.293Z,11.26
2023-02-19T01:07:10.370Z,11.26
2023-02-19T01:07:31.415Z,11.26
2023-02-19T01:07:52.511Z,11.26
2023-02-19T01:08:13.556Z,11.25
2023-02-19T01:08:34.619Z,11.26
2023-02-19T01:08:55.697Z,11.25
2023-02-19T01:09:16.790Z,11.25
2023-02-19T01:09:37.840Z,11.25
2023-02-19T01:09:58.892Z,11.26
2023-02-19T01:10:19.974Z,11.26
2023-02-19T01:10:41.041Z,11.26
2023-02-19T01:11:02.092Z,11.26
2023-02-19T01:11:23.173Z,11.25
2023-02-19T01:11:44.239Z,11.25
2023-02-19T01:12:05.288Z,11.25
2023-02-19T01:12:26.350Z,11.25
2023-02-19T01:12:47.423Z,11.26
2023-02-19T01:13:08.499Z,11.25
2023-02-19T01:13:29.532Z,11.26
2023-02-19T01:13:50.586Z,11.26
2023-02-19T01:14:11.707Z,11.25
2023-02-19T01:14:32.909Z,11.26
2023-02-19T01:14:53.967Z,11.25
2023-02-19T01:15:15.029Z,11.26
2023-02-19T01:15:36.086Z,11.25
2023-02-19T01:15:57.225Z,11.26
2023-02-19T01:16:18.320Z,11.25
2023-02-19T01:16:39.390Z,11.24
2023-02-19T01:17:00.445Z,11.25
2023-02-19T01:17:21.523Z,11.25
2023-02-19T01:17:42.564Z,11.24
2023-02-19T01:18:03.715Z,11.24
2023-02-19T01:18:24.773Z,11.24
2023-02-19T01:18:45.829Z,11.25
2023-02-19T01:19:06.887Z,11.25
2023-02-19T01:19:27.964Z,11.25
2023-02-19T01:19:49.190Z,11.24
2023-02-19T01:20:10.238Z,11.25
2023-02-19T01:20:31.353Z,11.25
2023-02-19T01:20:52.404Z,11.25
2023-02-19T01:21:13.500Z,11.25
2023-02-19T01:21:34.565Z,11.24
2023-02-19T01:21:55.590Z,11.24
2023-02-19T01:22:16.661Z,11.25
2023-02-19T01:22:37.726Z,11.24
2023-02-19T01:22:58.782Z,11.24
2023-02-19T01:23:19.850Z,11.24
2023-02-19T01:23:40.903Z,11.24
2023-02-19T01:24:02.062Z,11.24
2023-02-19T01:24:23.105Z,11.24
2023-02-19T01:24:44.156Z,11.24
2023-02-19T01:25:05.385Z,11.24
2023-02-19T01:25:26.436Z,11.24
2023-02-19T01:25:47.513Z,11.23
2023-02-19T01:26:08.575Z,11.24
2023-02-19T01:26:29.630Z,11.24
2023-02-19T01:26:50.677Z,11.24
2023-02-19T01:27:11.778Z,11.23
2023-02-19T01:27:32.817Z,11.23
2023-02-19T01:27:53.867Z,11.24
2023-02-19T01:28:14.937Z,11.23
2023-02-19T01:28:36.059Z,11.23
2023-02-19T01:28:57.092Z,11.23
2023-02-19T01:29:18.134Z,11.24
2023-02-19T01:29:39.236Z,11.23
2023-02-19T01:30:00.344Z,11.23
2023-02-19T01:30:21.590Z,11.24
2023-02-19T01:30:42.647Z,11.24
2023-02-19T01:31:03.758Z,11.24
2023-02-19T01:31:24.957Z,11.24
2023-02-19T01:31:46.100Z,11.23
2023-02-19T01:32:07.357Z,11.24
2023-02-19T01:32:28.449Z,11.24
2023-02-19T01:32:49.497Z,11.24
2023-02-19T01:33:10.622Z,11.24
2023-02-19T01:33:31.655Z,11.24
2023-02-19T01:33:52.723Z,11.24
2023-02-19T01:34:13.794Z,11.24
2023-02-19T01:34:34.881Z,11.24
2023-02-19T01:34:55.935Z,11.24
2023-02-19T01:35:17.010Z,11.24
2023-02-19T01:35:38.095Z,11.24
2023-02-19T01:35:59.170Z,11.24
2023-02-19T01:36:20.222Z,11.24
2023-02-19T01:36:41.308Z,11.24
2023-02-19T01:37:02.344Z,11.23
2023-02-19T01:37:23.406Z,11.24
2023-02-19T01:37:44.460Z,11.24
2023-02-19T01:38:05.523Z,11.24
2023-02-19T01:38:26.608Z,11.24
2023-02-19T01:38:47.697Z,11.24
2023-02-19T01:39:08.729Z,11.23
2023-02-19T01:39:29.787Z,11.24
2023-02-19T01:39:50.838Z,11.23
2023-02-19T01:40:11.912Z,11.24
2023-02-19T01:40:32.961Z,11.23
2023-02-19T01:40:54.035Z,11.24
2023-02-19T01:41:15.112Z,11.23
2023-02-19T01:41:36.178Z,11.24
2023-02-19T01:41:57.220Z,11.24
2023-02-19T01:42:18.277Z,11.24
2023-02-19T01:42:39.333Z,11.24
2023-02-19T01:43:00.391Z,11.23
2023-02-19T01:43:21.453Z,11.24
2023-02-19T01:43:42.542Z,11.24
2023-02-19T01:44:03.599Z,11.24
2023-02-19T01:44:24.661Z,11.23
2023-02-19T01:44:45.758Z,11.23
2023-02-19T01:45:06.825Z,11.22
2023-02-19T01:45:27.915Z,11.23
2023-02-19T01:45:49.006Z,11.22
2023-02-19T01:46:10.151Z,11.23
2023-02-19T01:46:31.229Z,11.22
2023-02-19T01:46:52.313Z,11.23
2023-02-19T01:47:13.348Z,11.24
2023-02-19T01:47:34.423Z,11.23
2023-02-19T01:47:55.462Z,11.23
2023-02-19T01:48:16.529Z,11.23
2023-02-19T01:48:37.602Z,11.23
2023-02-19T01:48:58.675Z,11.23
2023-02-19T01:49:19.742Z,11.23
2023-02-19T01:49:40.805Z,11.23
2023-02-19T01:50:01.837Z,11.23
2023-02-19T01:50:22.917Z,11.23
2023-02-19T01:50:43.960Z,11.23
2023-02-19T01:51:05.020Z,11.23
2023-02-19T01:51:26.313Z,11.23
2023-02-19T01:51:47.341Z,11.23
2023-02-19T01:52:08.388Z,11.23
2023-02-19T01:52:29.448Z,11.23
2023-02-19T01:52:50.506Z,11.22
2023-02-19T01:53:11.565Z,11.23
2023-02-19T01:53:32.610Z,11.23
2023-02-19T01:53:53.673Z,11.23
2023-02-19T01:54:14.731Z,11.23
2023-02-19T01:54:35.807Z,11.23
2023-02-19T01:54:56.858Z,11.23
2023-02-19T01:55:17.917Z,11.22
2023-02-19T01:55:38.977Z,11.23
2023-02-19T01:56:00.051Z,11.23
2023-02-19T01:56:21.133Z,11.23
2023-02-19T01:56:42.190Z,11.22
2023-02-19T01:57:03.255Z,11.23
2023-02-19T01:57:24.316Z,11.23
2023-02-19T01:57:45.372Z,11.23
2023-02-19T01:58:06.424Z,11.22
2023-02-19T01:58:27.489Z,11.23
2023-02-19T01:58:48.592Z,11.23
2023-02-19T01:59:09.649Z,11.23
2023-02-19T01:59:30.778Z,11.23
2023-02-19T01:59:51.821Z,11.22
2023-02-19T02:00:12.884Z,11.23
2023-02-19T02:00:33.988Z,11.23
2023-02-19T02:00:55.066Z,11.23
2023-02-19T02:01:16.154Z,11.22
2023-02-19T02:01:37.250Z,11.23
2023-02-19T02:01:58.528Z,11.23
2023-02-19T02:02:19.644Z,11.24
2023-02-19T02:02:40.720Z,11.23
2023-02-19T02:03:01.754Z,11.23
2023-02-19T02:03:22.820Z,11.23
2023-02-19T02:03:43.906Z,11.23
2023-02-19T02:04:04.952Z,11.22
2023-02-19T02:04:25.998Z,11.23
2023-02-19T02:04:47.057Z,11.23
2023-02-19T02:05:08.112Z,11.23
2023-02-19T02:05:29.183Z,11.23
2023-02-19T02:05:50.231Z,11.23
2023-02-19T02:06:11.298Z,11.23
2023-02-19T02:06:32.352Z,11.23
2023-02-19T02:06:53.403Z,11.23
2023-02-19T02:07:14.626Z,11.23
2023-02-19T02:07:35.772Z,11.23
2023-02-19T02:07:56.811Z,11.23
2023-02-19T02:08:17.859Z,11.23
2023-02-19T02:08:38.918Z,11.23
2023-02-19T02:08:59.980Z,11.24
2023-02-19T02:09:21.145Z,11.23
2023-02-19T02:09:42.196Z,11.24
2023-02-19T02:10:03.258Z,11.24
2023-02-19T02:10:24.325Z,11.23
2023-02-19T02:10:45.424Z,11.24
2023-02-19T02:11:06.473Z,11.24
2023-02-19T02:11:27.532Z,11.24
2023-02-19T02:11:48.718Z,11.24
2023-02-19T02:12:09.748Z,11.23
2023-02-19T02:12:30.834Z,11.24
2023-02-19T02:12:51.896Z,11.24
2023-02-19T02:13:12.976Z,11.24
2023-02-19T02:13:34.025Z,11.24
2023-02-19T02:13:55.082Z,11.24
2023-02-19T02:14:16.138Z,11.24
2023-02-19T02:14:37.246Z,11.24
2023-02-19T02:14:58.317Z,11.24
2023-02-19T02:15:19.337Z,11.24
2023-02-19T02:15:40.622Z,11.24
2023-02-19T02:16:01.685Z,11.24
2023-02-19T02:16:22.756Z,11.24
2023-02-19T02:16:43.814Z,11.24
2023-02-19T02:17:04.934Z,11.24
2023-02-19T02:17:25.962Z,11.24
2023-02-19T02:17:47.063Z,11.24
2023-02-19T02:18:08.103Z,11.24
2023-02-19T02:18:29.189Z,11.24
2023-02-19T02:18:50.248Z,11.23
2023-02-19T02:19:11.332Z,11.24
2023-02-19T02:19:32.402Z,11.24
2023-02-19T02:19:53.562Z,11.24
2023-02-19T02:20:14.613Z,11.24
2023-02-19T02:20:35.678Z,11.24
2023-02-19T02:20:56.750Z,11.24
2023-02-19T02:21:17.798Z,11.24
2023-02-19T02:21:38.855Z,11.24
2023-02-19T02:21:59.914Z,11.25
2023-02-19T02:22:20.991Z,11.24
2023-02-19T02:22:42.116Z,11.25
2023-02-19T02:23:03.281Z,11.24
2023-02-19T02:23:24.375Z,11.24
2023-02-19T02:23:45.448Z,11.24
2023-02-19T02:24:06.500Z,11.24
2023-02-19T02:24:27.568Z,11.24
2023-02-19T02:24:48.618Z,11.24
2023-02-19T02:25:09.681Z,11.25
2023-02-19T02:25:30.749Z,11.25
2023-02-19T02:25:51.802Z,11.25
2023-02-19T02:26:12.966Z,11.24
2023-02-19T02:26:34.013Z,11.24
2023-02-19T02:26:55.074Z,11.24
2023-02-19T02:27:16.146Z,11.24
2023-02-19T02:27:37.222Z,11.24
2023-02-19T02:27:58.288Z,11.24
2023-02-19T02:28:19.517Z,11.25
2023-02-19T02:28:40.562Z,11.24
2023-02-19T02:29:01.676Z,11.24
2023-02-19T02:29:22.704Z,11.24
2023-02-19T02:29:43.770Z,11.24
2023-02-19T02:30:04.834Z,11.25
2023-02-19T02:30:25.913Z,11.24
2023-02-19T02:30:47.010Z,11.24
2023-02-19T02:31:08.344Z,11.23
2023-02-19T02:31:29.630Z,11.24
2023-02-19T02:31:50.792Z,11.24
2023-02-19T02:32:11.956Z,11.22
2023-02-19T02:32:32.973Z,11.23
2023-02-19T02:32:54.110Z,11.24
2023-02-19T02:33:15.138Z,11.24
2023-02-19T02:33:36.363Z,11.24
2023-02-19T02:33:57.432Z,11.23
2023-02-19T02:34:18.564Z,11.24
2023-02-19T02:34:39.646Z,11.24
2023-02-19T02:35:00.745Z,11.24
2023-02-19T02:35:21.830Z,11.24
2023-02-19T02:35:42.866Z,11.24
2023-02-19T02:36:03.923Z,11.24
2023-02-19T02:36:24.988Z,11.24
2023-02-19T02:36:46.060Z,11.24
2023-02-19T02:37:07.113Z,11.24
2023-02-19T02:37:28.199Z,11.24
2023-02-19T02:37:49.243Z,11.24
2023-02-19T02:38:10.294Z,11.24
2023-02-19T02:38:31.382Z,11.24
2023-02-19T02:38:52.485Z,11.24
2023-02-19T02:39:13.544Z,11.24
2023-02-19T02:39:34.615Z,11.24
2023-02-19T02:39:55.669Z,11.24
2023-02-19T02:40:16.726Z,11.24
2023-02-19T02:40:37.794Z,11.24
2023-02-19T02:40:58.861Z,11.23
2023-02-19T02:41:19.926Z,11.23
2023-02-19T02:41:41.000Z,11.24
2023-02-19T02:42:02.090Z,11.24
2023-02-19T02:42:23.119Z,11.24
2023-02-19T02:42:44.190Z,11.24
2023-02-19T02:43:05.320Z,11.23
2023-02-19T02:43:26.355Z,11.23
2023-02-19T02:43:47.444Z,11.22
2023-02-19T02:44:08.537Z,11.23
2023-02-19T02:44:29.598Z,11.22
2023-02-19T02:44:50.662Z,11.22
2023-02-19T02:45:11.826Z,11.22
2023-02-19T02:45:32.915Z,11.23
2023-02-19T02:45:54.085Z,11.22
2023-02-19T02:46:15.106Z,11.22
2023-02-19T02:46:36.175Z,11.23
2023-02-19T02:46:57.238Z,11.22
2023-02-19T02:47:18.301Z,11.23
2023-02-19T02:47:39.376Z,11.22
2023-02-19T02:48:00.436Z,11.23
2023-02-19T02:48:21.515Z,11.23
2023-02-19T02:48:42.581Z,11.23
2023-02-19T02:49:03.693Z,11.22
2023-02-19T02:49:24.744Z,11.22
2023-02-19T02:49:45.802Z,11.22
2023-02-19T02:50:06.896Z,11.22
2023-02-19T02:50:27.932Z,11.22
2023-02-19T02:50:49.001Z,11.22
2023-02-19T02:51:10.468Z,11.22
2023-02-19T02:51:31.675Z,11.22
2023-02-19T02:51:52.744Z,11.21
2023-02-19T02:52:13.815Z,11.21
2023-02-19T02:52:34.876Z,11.21
2023-02-19T02:52:55.940Z,11.21
2023-02-19T02:53:17.009Z,11.21
2023-02-19T02:53:38.068Z,11.21
2023-02-19T02:53:59.146Z,11.21
2023-02-19T02:54:20.178Z,11.20
2023-02-19T02:54:41.310Z,11.21
2023-02-19T02:55:02.854Z,11.21
2023-02-19T02:55:23.889Z,11.20
2023-02-19T02:55:44.973Z,11.20
2023-02-19T02:56:06.028Z,11.20
2023-02-19T02:56:27.109Z,11.19
2023-02-19T02:56:48.200Z,11.20
2023-02-19T02:57:09.316Z,11.19
2023-02-19T02:57:30.454Z,11.19
2023-02-19T02:57:51.489Z,11.20
2023-02-19T02:58:12.548Z,11.19
2023-02-19T02:58:33.605Z,11.19
2023-02-19T02:58:54.676Z,11.20
2023-02-19T02:59:15.739Z,11.19
2023-02-19T02:59:36.806Z,11.19
2023-02-19T02:59:57.891Z,11.19
2023-02-19T03:00:18.950Z,11.18
2023-02-19T03:00:40.021Z,11.19
2023-02-19T03:01:01.144Z,11.18
2023-02-19T03:01:22.223Z,11.18
2023-02-19T03:01:43.283Z,11.18
2023-02-19T03:02:04.374Z,11.18
2023-02-19T03:02:25.561Z,11.18
2023-02-19T03:02:46.610Z,11.17
2023-02-19T03:03:07.672Z,11.17
2023-02-19T03:03:28.734Z,11.17
2023-02-19T03:03:49.861Z,11.17
2023-02-19T03:04:10.897Z,11.17
2023-02-19T03:04:31.961Z,11.17
2023-02-19T03:04:53.031Z,11.17
2023-02-19T03:05:14.224Z,11.16
2023-02-19T03:05:35.289Z,11.16
2023-02-19T03:05:56.346Z,11.16
2023-02-19T03:06:17.447Z,11.15
2023-02-19T03:06:38.479Z,11.16
2023-02-19T03:06:59.571Z,11.15
2023-02-19T03:07:20.655Z,11.15
2023-02-19T03:07:41.690Z,11.15
2023-02-19T03:08:02.762Z,11.14
2023-02-19T03:08:23.824Z,11.15
2023-02-19T03:08:44.902Z,11.15
2023-02-19T03:09:05.967Z,11.14
2023-02-19T03:09:27.017Z,11.14
2023-02-19T03:09:49.696Z,11.13
2023-02-19T03:10:10.824Z,11.13
2023-02-19T03:10:32.038Z,11.13
2023-02-19T03:10:53.092Z,11.13
2023-02-19T03:11:14.175Z,11.13
2023-02-19T03:11:35.238Z,11.13
2023-02-19T03:11:56.285Z,11.13
2023-02-19T03:12:17.362Z,11.12
2023-02-19T03:12:38.471Z,11.12
2023-02-19T03:12:59.536Z,11.13
2023-02-19T03:13:20.625Z,11.11
2023-02-19T03:13:41.705Z,11.12
2023-02-19T03:14:02.737Z,11.11
2023-02-19T03:14:23.783Z,11.11
2023-02-19T03:14:44.859Z,11.12
2023-02-19T03:15:05.910Z,11.11
2023-02-19T03:15:26.985Z,11.11
2023-02-19T03:15:48.123Z,11.11
2023-02-19T03:16:09.159Z,11.11
2023-02-19T03:16:30.205Z,11.11
2023-02-19T03:16:51.376Z,11.11
2023-02-19T03:17:12.412Z,11.10
2023-02-19T03:17:33.469Z,11.10
2023-02-19T03:17:54.593Z,11.09
2023-02-19T03:18:15.733Z,11.10
2023-02-19T03:18:36.757Z,11.09
2023-02-19T03:18:57.889Z,11.09
2023-02-19T03:19:19.006Z,11.10
2023-02-19T03:19:40.059Z,11.10
2023-02-19T03:20:01.132Z,11.09
2023-02-19T03:20:22.201Z,11.10
2023-02-19T03:20:43.277Z,11.09
2023-02-19T03:21:04.345Z,11.10
2023-02-19T03:21:25.409Z,11.09
2023-02-19T03:21:46.480Z,11.10
2023-02-19T03:22:07.619Z,11.10
2023-02-19T03:22:28.647Z,11.10
2023-02-19T03:22:49.735Z,11.10
2023-02-19T03:23:10.795Z,11.09
2023-02-19T03:23:31.856Z,11.10
2023-02-19T03:23:52.904Z,11.10
2023-02-19T03:24:14.045Z,11.09
2023-02-19T03:24:35.150Z,11.09
2023-02-19T03:24:56.216Z,11.10
2023-02-19T03:25:17.282Z,11.09
2023-02-19T03:25:38.358Z,11.10
2023-02-19T03:25:59.448Z,11.09
2023-02-19T03:26:20.807Z,11.09
2023-02-19T03:26:41.832Z,11.09
2023-02-19T03:27:02.891Z,11.09
2023-02-19T03:27:23.987Z,11.09
2023-02-19T03:27:45.020Z,11.09
2023-02-19T03:28:06.073Z,11.08
2023-02-19T03:28:27.126Z,11.09
2023-02-19T03:28:48.211Z,11.08
2023-02-19T03:29:09.253Z,11.08
2023-02-19T03:29:30.352Z,11.08
2023-02-19T03:29:51.365Z,11.07
2023-02-19T03:30:12.478Z,11.08
2023-02-19T03:30:33.575Z,11.08
2023-02-19T03:30:54.617Z,11.07
2023-02-19T03:31:15.812Z,11.07
2023-02-19T03:31:37.224Z,11.07
2023-02-19T03:31:58.413Z,11.07
2023-02-19T03:32:19.504Z,11.07
2023-02-19T03:32:40.573Z,11.07
2023-02-19T03:33:01.632Z,11.07
2023-02-19T03:33:22.691Z,11.07
2023-02-19T03:33:43.740Z,11.07
2023-02-19T03:34:04.806Z,11.07
2023-02-19T03:34:26.324Z,11.07
2023-02-19T03:34:47.346Z,11.07
2023-02-19T03:35:08.403Z,11.07
2023-02-19T03:35:29.497Z,11.07
2023-02-19T03:35:50.566Z,11.07
2023-02-19T03:36:11.623Z,11.07
2023-02-19T03:36:32.688Z,11.06
2023-02-19T03:36:53.904Z,11.06
2023-02-19T03:37:14.984Z,11.06
2023-02-19T03:37:36.035Z,11.06
2023-02-19T03:37:57.106Z,11.06
2023-02-19T03:38:18.174Z,11.06
2023-02-19T03:38:39.277Z,11.06
2023-02-19T03:39:00.376Z,11.07
2023-02-19T03:39:21.413Z,11.07
2023-02-19T03:39:42.464Z,11.06
2023-02-19T03:40:03.516Z,11.06
2023-02-19T03:40:24.617Z,11.06
2023-02-19T03:40:45.665Z,11.05
2023-02-19T03:41:06.720Z,11.06
2023-02-19T03:41:27.824Z,11.06
2023-02-19T03:41:48.875Z,11.06
2023-02-19T03:42:09.937Z,11.06
2023-02-19T03:42:31.014Z,11.06
2023-02-19T03:42:53.762Z,11.06
2023-02-19T03:43:16.054Z,11.07
2023-02-19T03:43:37.141Z,11.05
2023-02-19T03:43:58.195Z,11.06
2023-02-19T03:44:19.313Z,11.06
2023-02-19T03:44:40.356Z,11.05
2023-02-19T03:45:01.424Z,11.05
2023-02-19T03:45:22.484Z,11.06
2023-02-19T03:45:43.570Z,11.06
2023-02-19T03:46:04.712Z,11.05
2023-02-19T03:46:25.743Z,11.06
2023-02-19T03:46:46.815Z,11.05
2023-02-19T03:47:07.862Z,11.06
2023-02-19T03:47:28.963Z,11.05
2023-02-19T03:47:50.029Z,11.06
2023-02-19T03:48:11.081Z,11.05
2023-02-19T03:48:32.154Z,11.06
2023-02-19T03:48:53.212Z,11.05
2023-02-19T03:49:14.333Z,11.06
2023-02-19T03:49:35.363Z,11.05
2023-02-19T03:49:56.428Z,11.05
2023-02-19T03:50:17.485Z,11.05
2023-02-19T03:50:38.557Z,11.05
2023-02-19T03:50:59.624Z,11.06
2023-02-19T03:51:20.689Z,11.05
2023-02-19T03:51:41.724Z,11.06
2023-02-19T03:52:02.787Z,11.05
2023-02-19T03:52:23.870Z,11.05
2023-02-19T03:52:45.075Z,11.05
2023-02-19T03:53:06.142Z,11.05
2023-02-19T03:53:27.241Z,11.05
2023-02-19T03:53:48.274Z,11.06
2023-02-19T03:54:09.340Z,11.06
2023-02-19T03:54:30.405Z,11.06
2023-02-19T03:54:51.453Z,11.06
2023-02-19T03:55:12.516Z,11.05
2023-02-19T03:55:33.586Z,11.06
2023-02-19T03:55:54.647Z,11.05
2023-02-19T03:56:15.689Z,11.06
2023-02-19T03:56:36.748Z,11.06
2023-02-19T03:56:57.808Z,11.06
2023-02-19T03:57:18.871Z,11.06
2023-02-19T03:57:39.921Z,11.06
2023-02-19T03:58:01.167Z,11.06
2023-02-19T03:58:22.191Z,11.06
2023-02-19T03:58:43.272Z,11.06
2023-02-19T03:59:04.343Z,11.06
2023-02-19T03:59:25.376Z,11.06
2023-02-19T03:59:46.418Z,11.06
2023-02-19T04:00:07.480Z,11.06
2023-02-19T04:00:28.546Z,11.06
2023-02-19T04:00:49.613Z,11.06
2023-02-19T04:01:11.136Z,11.06
2023-02-19T04:01:32.366Z,11.06
2023-02-19T04:01:53.469Z,11.06
2023-02-19T04:02:14.531Z,11.06
2023-02-19T04:02:35.630Z,11.06
2023-02-19T04:02:56.686Z,11.06
2023-02-19T04:03:17.766Z,11.06
2023-02-19T04:03:38.830Z,11.06
2023-02-19T04:03:59.920Z,11.06
2023-02-19T04:04:20.967Z,11.06
2023-02-19T04:04:42.090Z,11.06
2023-02-19T04:05:03.113Z,11.06
2023-02-19T04:05:24.175Z,11.06
2023-02-19T04:05:45.232Z,11.06
2023-02-19T04:06:06.292Z,11.05
2023-02-19T04:06:27.359Z,11.06
2023-02-19T04:06:48.437Z,11.05
2023-02-19T04:07:09.487Z,11.05
2023-02-19T04:07:30.527Z,11.06
2023-02-19T04:07:51.616Z,11.05
2023-02-19T04:08:12.641Z,11.05
2023-02-19T04:08:33.865Z,11.05
2023-02-19T04:08:54.927Z,11.05
2023-02-19T04:09:16.009Z,11.05
2023-02-19T04:09:37.199Z,11.06
2023-02-19T04:09:58.232Z,11.05
2023-02-19T04:10:19.324Z,11.05
2023-02-19T04:10:40.394Z,11.05
2023-02-19T04:11:01.476Z,11.05
2023-02-19T04:11:22.513Z,11.05
2023-02-19T04:11:43.566Z,11.05
2023-02-19T04:12:04.627Z,11.05
2023-02-19T04:12:25.691Z,11.06
2023-02-19T04:12:46.749Z,11.05
2023-02-19T04:13:07.820Z,11.05
2023-02-19T04:13:28.880Z,11.05
2023-02-19T04:13:50.108Z,11.04
2023-02-19T04:14:11.181Z,11.05
2023-02-19T04:14:32.254Z,11.05
2023-02-19T04:14:53.319Z,11.04
2023-02-19T04:15:14.407Z,11.05
2023-02-19T04:15:35.444Z,11.05
2023-02-19T04:15:56.505Z,11.05
2023-02-19T04:16:17.619Z,11.05
2023-02-19T04:16:38.726Z,11.05
2023-02-19T04:16:59.798Z,11.04
2023-02-19T04:17:20.863Z,11.05
2023-02-19T04:17:41.939Z,11.04
2023-02-19T04:18:02.958Z,11.04
2023-02-19T04:18:24.009Z,11.05
2023-02-19T04:18:45.072Z,11.05
2023-02-19T04:19:06.150Z,11.05
2023-02-19T04:19:27.217Z,11.05
2023-02-19T04:19:48.283Z,11.05
2023-02-19T04:20:09.387Z,11.05
2023-02-19T04:20:30.421Z,11.05
2023-02-19T04:20:51.471Z,11.05
2023-02-19T04:21:12.834Z,11.04
2023-02-19T04:21:33.942Z,11.05
2023-02-19T04:21:55.012Z,11.04
2023-02-19T04:22:16.066Z,11.04
2023-02-19T04:22:37.140Z,11.04
2023-02-19T04:22:58.191Z,11.04
2023-02-19T04:23:19.275Z,11.04
2023-02-19T04:23:40.351Z,11.04
2023-02-19T04:24:01.390Z,11.04
2023-02-19T04:24:22.466Z,11.04
2023-02-19T04:24:43.531Z,11.03
2023-02-19T04:25:04.585Z,11.04
2023-02-19T04:25:25.638Z,11.03
2023-02-19T04:25:46.732Z,11.03
2023-02-19T04:26:07.769Z,11.03
2023-02-19T04:26:28.876Z,11.03
2023-02-19T04:26:49.916Z,11.04
2023-02-19T04:27:10.963Z,11.04
2023-02-19T04:27:32.025Z,11.04
2023-02-19T04:27:53.086Z,11.03
2023-02-19T04:28:14.140Z,11.03
2023-02-19T04:28:35.227Z,11.03
2023-02-19T04:28:56.326Z,11.03
2023-02-19T04:29:17.376Z,11.03
2023-02-19T04:29:39.389Z,11.02
2023-02-19T04:30:00.503Z,11.03
2023-02-19T04:30:21.618Z,11.02
2023-02-19T04:30:42.807Z,11.02
2023-02-19T04:31:04.027Z,11.03
2023-02-19T04:31:25.196Z,11.02
2023-02-19T04:31:46.313Z,11.02